Terminal Aerodrome Forecast
Issued by NWS

Home | Current Version | Previous Version | Text Only | Print | Product List | Glossary On
Versions: 1 2 3 4 5 6 7 8 9 10 11 12 13 14 15 16 17 18 19
000
FTUS46 KLOX 271700
TAFLGB
TAF
KLGB 271739Z 2718/2818 VRB05KT P6SM OVC030
     FM272000 20008KT P6SM BKN040
     FM272200 24010KT P6SM SCT025 BKN060
     FM280100 26009KT P6SM BKN025 BKN080
     FM280900 28012G18KT P6SM OVC035
     FM281500 28009KT 6SM -RA BR OVC025=

USA.gov is the U.S. government's official web portal to all federal, state and local government web resources and services.